sensor_id;sensor_type;location;lat;lon;timestamp;P1;durP1;ratioP1;P2;durP2;ratioP2
4806;SDS011;2417;52.482;13.432;2023-03-31T00:00:53;8.03;;;2.87;;
4806;SDS011;2417;52.482;13.432;2023-03-31T00:03:23;9.80;;;3.40;;
4806;SDS011;2417;52.482;13.432;2023-03-31T00:05:55;8.60;;;2.93;;
4806;SDS011;2417;52.482;13.432;2023-03-31T00:08:26;14.43;;;3.10;;
4806;SDS011;2417;52.482;13.432;2023-03-31T00:10:57;6.43;;;2.43;;
4806;SDS011;2417;52.482;13.432;2023-03-31T00:13:26;7.43;;;3.23;;
4806;SDS011;2417;52.482;13.432;2023-03-31T00:15:57;8.73;;;2.97;;
4806;SDS011;2417;52.482;13.432;2023-03-31T00:18:26;9.30;;;3.33;;
4806;SDS011;2417;52.482;13.432;2023-03-31T00:20:58;11.60;;;3.60;;
4806;SDS011;2417;52.482;13.432;2023-03-31T00:23:33;8.70;;;3.23;;
4806;SDS011;2417;52.482;13.432;2023-03-31T00:26:02;10.10;;;2.87;;
4806;SDS011;2417;52.482;13.432;2023-03-31T00:28:30;9.47;;;3.30;;
4806;SDS011;2417;52.482;13.432;2023-03-31T00:31:00;7.70;;;2.47;;
4806;SDS011;2417;52.482;13.432;2023-03-31T00:33:31;8.27;;;2.80;;
4806;SDS011;2417;52.482;13.432;2023-03-31T00:35:59;11.30;;;2.97;;
4806;SDS011;2417;52.482;13.432;2023-03-31T00:38:34;8.90;;;3.30;;
4806;SDS011;2417;52.482;13.432;2023-03-31T00:41:02;6.53;;;2.40;;
4806;SDS011;2417;52.482;13.432;2023-03-31T00:43:31;10.53;;;2.87;;
4806;SDS011;2417;52.482;13.432;2023-03-31T00:46:01;10.03;;;2.47;;
4806;SDS011;2417;52.482;13.432;2023-03-31T00:48:33;10.93;;;3.10;;
4806;SDS011;2417;52.482;13.432;2023-03-31T00:51:02;9.30;;;2.57;;
4806;SDS011;2417;52.482;13.432;2023-03-31T00:53:31;7.00;;;2.23;;
4806;SDS011;2417;52.482;13.432;2023-03-31T00:56:03;13.83;;;2.83;;
4806;SDS011;2417;52.482;13.432;2023-03-31T00:58:34;10.17;;;2.87;;
4806;SDS011;2417;52.482;13.432;2023-03-31T01:01:09;9.17;;;3.00;;
4806;SDS011;2417;52.482;13.432;2023-03-31T01:03:42;10.03;;;2.30;;
4806;SDS011;2417;52.482;13.432;2023-03-31T01:06:12;6.70;;;2.40;;
4806;SDS011;2417;52.482;13.432;2023-03-31T01:08:40;7.77;;;2.50;;
4806;SDS011;2417;52.482;13.432;2023-03-31T01:11:10;6.37;;;2.13;;
4806;SDS011;2417;52.482;13.432;2023-03-31T01:13:39;10.00;;;2.33;;
4806;SDS011;2417;52.482;13.432;2023-03-31T01:16:08;6.40;;;2.30;;
4806;SDS011;2417;52.482;13.432;2023-03-31T01:18:36;11.50;;;2.10;;
4806;SDS011;2417;52.482;13.432;2023-03-31T01:21:11;6.33;;;1.90;;
4806;SDS011;2417;52.482;13.432;2023-03-31T01:23:48;10.13;;;2.70;;
4806;SDS011;2417;52.482;13.432;2023-03-31T01:26:37;8.00;;;2.40;;
4806;SDS011;2417;52.482;13.432;2023-03-31T01:29:12;6.87;;;2.07;;
4806;SDS011;2417;52.482;13.432;2023-03-31T01:31:49;5.23;;;1.90;;
4806;SDS011;2417;52.482;13.432;2023-03-31T01:37:17;12.30;;;2.20;;
4806;SDS011;2417;52.482;13.432;2023-03-31T01:40:14;10.67;;;2.10;;
4806;SDS011;2417;52.482;13.432;2023-03-31T01:42:47;6.73;;;1.83;;
4806;SDS011;2417;52.482;13.432;2023-03-31T01:45:19;5.33;;;2.17;;
4806;SDS011;2417;52.482;13.432;2023-03-31T01:47:50;11.47;;;2.20;;
4806;SDS011;2417;52.482;13.432;2023-03-31T01:50:21;6.43;;;1.80;;
4806;SDS011;2417;52.482;13.432;2023-03-31T01:52:52;12.13;;;2.23;;
4806;SDS011;2417;52.482;13.432;2023-03-31T01:55:28;6.77;;;1.87;;
4806;SDS011;2417;52.482;13.432;2023-03-31T01:57:58;6.50;;;1.70;;
4806;SDS011;2417;52.482;13.432;2023-03-31T02:00:27;5.60;;;1.70;;
4806;SDS011;2417;52.482;13.432;2023-03-31T02:03:00;6.03;;;1.67;;
4806;SDS011;2417;52.482;13.432;2023-03-31T02:05:31;12.17;;;1.77;;
4806;SDS011;2417;52.482;13.432;2023-03-31T02:08:00;5.93;;;1.50;;
4806;SDS011;2417;52.482;13.432;2023-03-31T02:10:33;6.97;;;2.07;;
4806;SDS011;2417;52.482;13.432;2023-03-31T02:13:02;5.17;;;1.70;;
4806;SDS011;2417;52.482;13.432;2023-03-31T02:15:32;8.63;;;2.30;;
4806;SDS011;2417;52.482;13.432;2023-03-31T02:18:05;9.37;;;2.00;;
4806;SDS011;2417;52.482;13.432;2023-03-31T02:20:39;9.63;;;1.70;;
4806;SDS011;2417;52.482;13.432;2023-03-31T02:23:10;10.10;;;1.70;;
4806;SDS011;2417;52.482;13.432;2023-03-31T02:25:41;11.13;;;1.83;;
4806;SDS011;2417;52.482;13.432;2023-03-31T02:28:13;6.83;;;1.90;;
4806;SDS011;2417;52.482;13.432;2023-03-31T02:30:47;5.80;;;1.87;;
4806;SDS011;2417;52.482;13.432;2023-03-31T02:33:17;6.00;;;2.10;;
4806;SDS011;2417;52.482;13.432;2023-03-31T02:35:46;10.23;;;1.90;;
4806;SDS011;2417;52.482;13.432;2023-03-31T02:38:14;6.90;;;2.07;;
4806;SDS011;2417;52.482;13.432;2023-03-31T02:40:43;7.43;;;1.93;;
4806;SDS011;2417;52.482;13.432;2023-03-31T02:43:11;10.30;;;2.00;;
4806;SDS011;2417;52.482;13.432;2023-03-31T02:45:42;5.67;;;1.40;;
4806;SDS011;2417;52.482;13.432;2023-03-31T02:48:13;4.97;;;1.40;;
4806;SDS011;2417;52.482;13.432;2023-03-31T02:50:47;5.57;;;1.40;;
4806;SDS011;2417;52.482;13.432;2023-03-31T02:53:18;6.30;;;1.50;;
4806;SDS011;2417;52.482;13.432;2023-03-31T02:55:54;4.10;;;1.60;;
4806;SDS011;2417;52.482;13.432;2023-03-31T02:58:29;8.20;;;1.37;;
4806;SDS011;2417;52.482;13.432;2023-03-31T03:01:14;7.70;;;1.60;;
4806;SDS011;2417;52.482;13.432;2023-03-31T03:03:49;9.80;;;2.20;;
4806;SDS011;2417;52.482;13.432;2023-03-31T03:06:25;10.67;;;2.03;;
4806;SDS011;2417;52.482;13.432;2023-03-31T03:09:06;6.43;;;1.87;;
4806;SDS011;2417;52.482;13.432;2023-03-31T03:11:40;4.70;;;1.47;;
4806;SDS011;2417;52.482;13.432;2023-03-31T03:14:13;4.03;;;1.33;;
4806;SDS011;2417;52.482;13.432;2023-03-31T03:16:45;4.93;;;1.37;;
4806;SDS011;2417;52.482;13.432;2023-03-31T03:19:17;9.40;;;1.40;;
4806;SDS011;2417;52.482;13.432;2023-03-31T03:21:45;6.00;;;1.43;;
4806;SDS011;2417;52.482;13.432;2023-03-31T03:24:13;6.10;;;1.77;;
4806;SDS011;2417;52.482;13.432;2023-03-31T03:26:43;8.00;;;2.30;;
4806;SDS011;2417;52.482;13.432;2023-03-31T03:29:11;7.60;;;1.90;;
4806;SDS011;2417;52.482;13.432;2023-03-31T03:31:40;5.70;;;1.50;;
4806;SDS011;2417;52.482;13.432;2023-03-31T03:34:08;5.10;;;1.73;;
4806;SDS011;2417;52.482;13.432;2023-03-31T03:36:36;4.23;;;1.30;;
4806;SDS011;2417;52.482;13.432;2023-03-31T03:39:04;7.60;;;1.57;;
4806;SDS011;2417;52.482;13.432;2023-03-31T03:41:34;8.27;;;1.80;;
4806;SDS011;2417;52.482;13.432;2023-03-31T03:44:04;7.90;;;2.00;;
4806;SDS011;2417;52.482;13.432;2023-03-31T03:46:32;6.67;;;1.83;;
4806;SDS011;2417;52.482;13.432;2023-03-31T03:49:00;7.70;;;1.70;;
4806;SDS011;2417;52.482;13.432;2023-03-31T03:51:28;5.40;;;1.77;;
4806;SDS011;2417;52.482;13.432;2023-03-31T03:53:56;6.40;;;2.00;;
4806;SDS011;2417;52.482;13.432;2023-03-31T03:56:24;3.80;;;1.20;;
4806;SDS011;2417;52.482;13.432;2023-03-31T03:58:51;7.40;;;1.60;;
4806;SDS011;2417;52.482;13.432;2023-03-31T04:01:20;9.37;;;2.30;;
4806;SDS011;2417;52.482;13.432;2023-03-31T04:03:49;10.70;;;2.10;;
4806;SDS011;2417;52.482;13.432;2023-03-31T04:06:17;5.47;;;1.80;;
4806;SDS011;2417;52.482;13.432;2023-03-31T04:08:44;5.60;;;1.77;;
4806;SDS011;2417;52.482;13.432;2023-03-31T04:11:13;4.80;;;1.67;;
4806;SDS011;2417;52.482;13.432;2023-03-31T04:13:45;5.43;;;1.70;;
4806;SDS011;2417;52.482;13.432;2023-03-31T04:16:13;6.40;;;1.83;;
4806;SDS011;2417;52.482;13.432;2023-03-31T04:18:43;7.07;;;1.97;;
4806;SDS011;2417;52.482;13.432;2023-03-31T04:21:12;7.73;;;2.47;;
4806;SDS011;2417;52.482;13.432;2023-03-31T04:23:41;11.73;;;3.30;;
4806;SDS011;2417;52.482;13.432;2023-03-31T04:26:12;9.10;;;2.80;;
4806;SDS011;2417;52.482;13.432;2023-03-31T04:28:42;7.93;;;2.40;;
4806;SDS011;2417;52.482;13.432;2023-03-31T04:31:12;10.37;;;3.40;;
4806;SDS011;2417;52.482;13.432;2023-03-31T04:33:43;10.30;;;3.33;;
4806;SDS011;2417;52.482;13.432;2023-03-31T04:36:12;11.47;;;3.30;;
4806;SDS011;2417;52.482;13.432;2023-03-31T04:38:44;8.27;;;2.03;;
4806;SDS011;2417;52.482;13.432;2023-03-31T04:41:13;8.53;;;1.83;;
4806;SDS011;2417;52.482;13.432;2023-03-31T04:43:41;8.53;;;2.63;;
4806;SDS011;2417;52.482;13.432;2023-03-31T04:46:09;11.80;;;2.80;;
4806;SDS011;2417;52.482;13.432;2023-03-31T04:48:37;7.80;;;1.63;;
4806;SDS011;2417;52.482;13.432;2023-03-31T04:51:06;7.73;;;1.90;;
4806;SDS011;2417;52.482;13.432;2023-03-31T04:53:35;5.60;;;1.80;;
4806;SDS011;2417;52.482;13.432;2023-03-31T04:56:03;4.57;;;1.77;;
4806;SDS011;2417;52.482;13.432;2023-03-31T04:58:32;14.63;;;2.30;;
4806;SDS011;2417;52.482;13.432;2023-03-31T05:01:00;10.00;;;1.90;;
4806;SDS011;2417;52.482;13.432;2023-03-31T05:03:27;7.90;;;1.70;;
4806;SDS011;2417;52.482;13.432;2023-03-31T05:05:56;7.73;;;1.87;;
4806;SDS011;2417;52.482;13.432;2023-03-31T05:08:25;6.27;;;1.70;;
4806;SDS011;2417;52.482;13.432;2023-03-31T05:10:53;8.43;;;1.63;;
4806;SDS011;2417;52.482;13.432;2023-03-31T05:13:21;5.87;;;1.60;;
4806;SDS011;2417;52.482;13.432;2023-03-31T05:15:50;5.50;;;1.60;;
4806;SDS011;2417;52.482;13.432;2023-03-31T05:18:18;10.03;;;2.20;;
4806;SDS011;2417;52.482;13.432;2023-03-31T05:20:46;8.57;;;1.73;;
4806;SDS011;2417;52.482;13.432;2023-03-31T05:23:14;9.53;;;2.17;;
4806;SDS011;2417;52.482;13.432;2023-03-31T05:25:43;6.70;;;1.90;;
4806;SDS011;2417;52.482;13.432;2023-03-31T05:28:11;10.17;;;2.33;;
4806;SDS011;2417;52.482;13.432;2023-03-31T05:30:39;6.83;;;2.37;;
4806;SDS011;2417;52.482;13.432;2023-03-31T05:33:07;7.73;;;2.10;;
4806;SDS011;2417;52.482;13.432;2023-03-31T05:35:35;9.27;;;2.13;;
4806;SDS011;2417;52.482;13.432;2023-03-31T05:38:03;7.63;;;1.93;;
4806;SDS011;2417;52.482;13.432;2023-03-31T05:40:30;9.60;;;2.40;;
4806;SDS011;2417;52.482;13.432;2023-03-31T05:43:00;9.10;;;2.10;;
4806;SDS011;2417;52.482;13.432;2023-03-31T05:45:27;9.30;;;2.20;;
4806;SDS011;2417;52.482;13.432;2023-03-31T05:47:55;7.43;;;2.57;;
4806;SDS011;2417;52.482;13.432;2023-03-31T05:50:23;8.80;;;2.60;;
4806;SDS011;2417;52.482;13.432;2023-03-31T05:52:51;8.33;;;2.40;;
4806;SDS011;2417;52.482;13.432;2023-03-31T05:55:19;9.73;;;2.90;;
4806;SDS011;2417;52.482;13.432;2023-03-31T05:57:46;9.83;;;2.37;;
4806;SDS011;2417;52.482;13.432;2023-03-31T06:00:16;8.53;;;2.50;;
4806;SDS011;2417;52.482;13.432;2023-03-31T06:02:44;8.90;;;2.27;;
4806;SDS011;2417;52.482;13.432;2023-03-31T06:05:12;5.00;;;2.20;;
4806;SDS011;2417;52.482;13.432;2023-03-31T06:07:40;12.50;;;2.40;;
4806;SDS011;2417;52.482;13.432;2023-03-31T06:10:08;4.97;;;2.20;;
4806;SDS011;2417;52.482;13.432;2023-03-31T06:12:36;7.80;;;2.60;;
4806;SDS011;2417;52.482;13.432;2023-03-31T06:15:04;9.10;;;2.63;;
4806;SDS011;2417;52.482;13.432;2023-03-31T06:17:34;7.80;;;2.47;;
4806;SDS011;2417;52.482;13.432;2023-03-31T06:20:05;7.00;;;2.37;;
4806;SDS011;2417;52.482;13.432;2023-03-31T06:22:53;9.70;;;2.20;;
4806;SDS011;2417;52.482;13.432;2023-03-31T06:25:20;11.20;;;3.20;;
4806;SDS011;2417;52.482;13.432;2023-03-31T06:27:48;7.50;;;2.47;;
4806;SDS011;2417;52.482;13.432;2023-03-31T06:30:16;7.90;;;2.63;;
4806;SDS011;2417;52.482;13.432;2023-03-31T06:32:45;11.90;;;2.60;;
4806;SDS011;2417;52.482;13.432;2023-03-31T06:35:14;11.30;;;2.43;;
4806;SDS011;2417;52.482;13.432;2023-03-31T06:37:42;9.00;;;2.80;;
4806;SDS011;2417;52.482;13.432;2023-03-31T06:40:10;9.43;;;2.77;;
4806;SDS011;2417;52.482;13.432;2023-03-31T06:42:38;8.73;;;2.80;;
4806;SDS011;2417;52.482;13.432;2023-03-31T06:45:08;13.67;;;2.93;;
4806;SDS011;2417;52.482;13.432;2023-03-31T06:47:36;9.63;;;2.73;;
4806;SDS011;2417;52.482;13.432;2023-03-31T06:50:06;7.87;;;2.50;;
4806;SDS011;2417;52.482;13.432;2023-03-31T06:52:35;9.90;;;3.00;;
4806;SDS011;2417;52.482;13.432;2023-03-31T06:55:03;12.40;;;2.60;;
4806;SDS011;2417;52.482;13.432;2023-03-31T06:57:31;6.93;;;2.63;;
4806;SDS011;2417;52.482;13.432;2023-03-31T06:59:59;10.93;;;3.00;;
4806;SDS011;2417;52.482;13.432;2023-03-31T07:02:27;17.43;;;3.30;;
4806;SDS011;2417;52.482;13.432;2023-03-31T07:04:55;8.60;;;2.50;;
4806;SDS011;2417;52.482;13.432;2023-03-31T07:07:24;6.63;;;2.40;;
4806;SDS011;2417;52.482;13.432;2023-03-31T07:09:52;9.00;;;2.50;;
4806;SDS011;2417;52.482;13.432;2023-03-31T07:12:21;11.30;;;2.40;;
4806;SDS011;2417;52.482;13.432;2023-03-31T07:14:49;13.10;;;2.67;;
4806;SDS011;2417;52.482;13.432;2023-03-31T07:17:18;8.93;;;3.10;;
4806;SDS011;2417;52.482;13.432;2023-03-31T07:19:46;11.23;;;2.70;;
4806;SDS011;2417;52.482;13.432;2023-03-31T07:22:14;10.20;;;2.43;;
4806;SDS011;2417;52.482;13.432;2023-03-31T07:24:43;7.67;;;2.43;;
4806;SDS011;2417;52.482;13.432;2023-03-31T07:27:11;12.10;;;3.10;;
4806;SDS011;2417;52.482;13.432;2023-03-31T07:29:39;9.03;;;2.60;;
4806;SDS011;2417;52.482;13.432;2023-03-31T07:32:07;8.47;;;2.73;;
4806;SDS011;2417;52.482;13.432;2023-03-31T07:34:36;11.67;;;2.67;;
4806;SDS011;2417;52.482;13.432;2023-03-31T07:37:06;9.30;;;2.33;;
4806;SDS011;2417;52.482;13.432;2023-03-31T07:39:34;7.73;;;2.70;;
4806;SDS011;2417;52.482;13.432;2023-03-31T07:42:04;10.20;;;3.30;;
4806;SDS011;2417;52.482;13.432;2023-03-31T07:44:32;9.53;;;3.30;;
4806;SDS011;2417;52.482;13.432;2023-03-31T07:47:00;8.93;;;2.60;;
4806;SDS011;2417;52.482;13.432;2023-03-31T07:49:30;14.20;;;3.40;;
4806;SDS011;2417;52.482;13.432;2023-03-31T07:51:58;13.53;;;3.73;;
4806;SDS011;2417;52.482;13.432;2023-03-31T07:54:26;17.07;;;2.20;;
4806;SDS011;2417;52.482;13.432;2023-03-31T07:56:54;9.13;;;3.10;;
4806;SDS011;2417;52.482;13.432;2023-03-31T07:59:24;8.93;;;1.90;;
4806;SDS011;2417;52.482;13.432;2023-03-31T08:01:51;7.93;;;2.37;;
4806;SDS011;2417;52.482;13.432;2023-03-31T08:04:19;7.63;;;2.00;;
4806;SDS011;2417;52.482;13.432;2023-03-31T08:06:47;9.67;;;2.17;;
4806;SDS011;2417;52.482;13.432;2023-03-31T08:09:16;8.90;;;2.93;;
4806;SDS011;2417;52.482;13.432;2023-03-31T08:11:45;8.80;;;2.27;;
4806;SDS011;2417;52.482;13.432;2023-03-31T08:14:13;8.10;;;2.20;;
4806;SDS011;2417;52.482;13.432;2023-03-31T08:16:48;9.33;;;1.83;;
4806;SDS011;2417;52.482;13.432;2023-03-31T08:19:17;10.67;;;2.53;;
4806;SDS011;2417;52.482;13.432;2023-03-31T08:21:45;8.13;;;2.20;;
4806;SDS011;2417;52.482;13.432;2023-03-31T08:24:12;11.93;;;2.93;;
4806;SDS011;2417;52.482;13.432;2023-03-31T08:26:40;8.60;;;2.20;;
4806;SDS011;2417;52.482;13.432;2023-03-31T08:29:08;8.03;;;1.87;;
4806;SDS011;2417;52.482;13.432;2023-03-31T08:31:36;9.53;;;2.20;;
4806;SDS011;2417;52.482;13.432;2023-03-31T08:34:06;9.00;;;2.00;;
4806;SDS011;2417;52.482;13.432;2023-03-31T08:36:34;8.73;;;2.10;;
4806;SDS011;2417;52.482;13.432;2023-03-31T08:39:01;10.03;;;1.80;;
4806;SDS011;2417;52.482;13.432;2023-03-31T08:41:33;12.53;;;4.30;;
4806;SDS011;2417;52.482;13.432;2023-03-31T08:44:05;9.07;;;2.80;;
4806;SDS011;2417;52.482;13.432;2023-03-31T08:46:35;8.90;;;2.00;;
4806;SDS011;2417;52.482;13.432;2023-03-31T08:49:04;6.63;;;2.00;;
4806;SDS011;2417;52.482;13.432;2023-03-31T08:51:34;8.77;;;2.47;;
4806;SDS011;2417;52.482;13.432;2023-03-31T08:54:04;8.20;;;2.30;;
4806;SDS011;2417;52.482;13.432;2023-03-31T08:56:34;9.23;;;2.27;;
4806;SDS011;2417;52.482;13.432;2023-03-31T08:59:05;6.30;;;1.70;;
4806;SDS011;2417;52.482;13.432;2023-03-31T09:01:35;9.43;;;2.63;;
4806;SDS011;2417;52.482;13.432;2023-03-31T09:04:24;10.20;;;2.57;;
4806;SDS011;2417;52.482;13.432;2023-03-31T09:06:57;13.63;;;1.97;;
4806;SDS011;2417;52.482;13.432;2023-03-31T09:09:31;9.50;;;2.63;;
4806;SDS011;2417;52.482;13.432;2023-03-31T09:12:04;9.43;;;2.13;;
4806;SDS011;2417;52.482;13.432;2023-03-31T09:14:36;9.17;;;2.00;;
4806;SDS011;2417;52.482;13.432;2023-03-31T09:17:10;10.33;;;2.73;;
4806;SDS011;2417;52.482;13.432;2023-03-31T09:19:40;12.33;;;3.00;;
4806;SDS011;2417;52.482;13.432;2023-03-31T09:22:11;7.33;;;2.67;;
4806;SDS011;2417;52.482;13.432;2023-03-31T09:24:44;11.73;;;2.77;;
4806;SDS011;2417;52.482;13.432;2023-03-31T09:27:14;13.07;;;3.50;;
4806;SDS011;2417;52.482;13.432;2023-03-31T09:29:42;8.93;;;2.10;;
4806;SDS011;2417;52.482;13.432;2023-03-31T09:32:13;8.63;;;2.60;;
4806;SDS011;2417;52.482;13.432;2023-03-31T09:34:43;8.17;;;1.90;;
4806;SDS011;2417;52.482;13.432;2023-03-31T09:37:13;7.07;;;2.23;;
4806;SDS011;2417;52.482;13.432;2023-03-31T09:39:41;7.27;;;1.97;;
4806;SDS011;2417;52.482;13.432;2023-03-31T09:42:09;12.37;;;2.50;;
4806;SDS011;2417;52.482;13.432;2023-03-31T09:44:40;8.20;;;2.20;;
4806;SDS011;2417;52.482;13.432;2023-03-31T09:47:11;9.00;;;2.47;;
4806;SDS011;2417;52.482;13.432;2023-03-31T09:49:40;11.40;;;2.00;;
4806;SDS011;2417;52.482;13.432;2023-03-31T09:52:24;12.67;;;1.97;;
4806;SDS011;2417;52.482;13.432;2023-03-31T09:54:53;7.37;;;1.93;;
4806;SDS011;2417;52.482;13.432;2023-03-31T09:57:23;11.63;;;2.00;;
4806;SDS011;2417;52.482;13.432;2023-03-31T09:59:51;8.47;;;2.20;;
4806;SDS011;2417;52.482;13.432;2023-03-31T10:02:32;8.30;;;2.27;;
4806;SDS011;2417;52.482;13.432;2023-03-31T10:05:00;9.67;;;1.77;;
4806;SDS011;2417;52.482;13.432;2023-03-31T10:07:30;6.90;;;1.73;;
4806;SDS011;2417;52.482;13.432;2023-03-31T10:09:58;8.60;;;2.23;;
4806;SDS011;2417;52.482;13.432;2023-03-31T10:12:27;9.50;;;2.40;;
4806;SDS011;2417;52.482;13.432;2023-03-31T10:15:01;7.10;;;2.40;;
4806;SDS011;2417;52.482;13.432;2023-03-31T10:17:31;8.73;;;2.33;;
4806;SDS011;2417;52.482;13.432;2023-03-31T10:20:19;7.27;;;2.70;;
4806;SDS011;2417;52.482;13.432;2023-03-31T10:22:49;9.77;;;3.17;;
4806;SDS011;2417;52.482;13.432;2023-03-31T10:25:19;10.77;;;3.10;;
4806;SDS011;2417;52.482;13.432;2023-03-31T10:27:48;6.47;;;2.93;;
4806;SDS011;2417;52.482;13.432;2023-03-31T10:30:20;8.53;;;4.00;;
4806;SDS011;2417;52.482;13.432;2023-03-31T10:32:49;8.67;;;3.53;;
4806;SDS011;2417;52.482;13.432;2023-03-31T10:35:21;7.77;;;3.90;;
4806;SDS011;2417;52.482;13.432;2023-03-31T10:37:53;12.17;;;4.37;;
4806;SDS011;2417;52.482;13.432;2023-03-31T10:40:22;10.67;;;3.93;;
4806;SDS011;2417;52.482;13.432;2023-03-31T10:42:57;12.27;;;3.90;;
4806;SDS011;2417;52.482;13.432;2023-03-31T10:45:28;6.90;;;4.03;;
4806;SDS011;2417;52.482;13.432;2023-03-31T10:48:04;9.00;;;3.07;;
4806;SDS011;2417;52.482;13.432;2023-03-31T10:50:34;11.43;;;4.50;;
4806;SDS011;2417;52.482;13.432;2023-03-31T10:53:05;6.37;;;3.70;;
4806;SDS011;2417;52.482;13.432;2023-03-31T10:55:34;8.43;;;3.73;;
4806;SDS011;2417;52.482;13.432;2023-03-31T10:58:05;13.20;;;4.67;;
4806;SDS011;2417;52.482;13.432;2023-03-31T11:00:36;17.70;;;4.60;;
4806;SDS011;2417;52.482;13.432;2023-03-31T11:03:12;15.50;;;5.70;;
4806;SDS011;2417;52.482;13.432;2023-03-31T11:05:45;14.77;;;6.83;;
4806;SDS011;2417;52.482;13.432;2023-03-31T11:08:23;15.30;;;7.97;;
4806;SDS011;2417;52.482;13.432;2023-03-31T11:11:10;18.63;;;9.00;;
4806;SDS011;2417;52.482;13.432;2023-03-31T11:13:40;13.10;;;7.00;;
4806;SDS011;2417;52.482;13.432;2023-03-31T11:16:13;12.00;;;5.60;;
4806;SDS011;2417;52.482;13.432;2023-03-31T11:18:49;12.17;;;5.10;;
4806;SDS011;2417;52.482;13.432;2023-03-31T11:21:22;12.00;;;3.70;;
4806;SDS011;2417;52.482;13.432;2023-03-31T11:23:55;12.07;;;3.10;;
4806;SDS011;2417;52.482;13.432;2023-03-31T11:26:27;14.53;;;3.63;;
4806;SDS011;2417;52.482;13.432;2023-03-31T11:29:00;12.30;;;4.07;;
4806;SDS011;2417;52.482;13.432;2023-03-31T11:31:32;9.77;;;2.70;;
4806;SDS011;2417;52.482;13.432;2023-03-31T11:34:14;7.33;;;3.00;;
4806;SDS011;2417;52.482;13.432;2023-03-31T11:36:47;10.70;;;2.80;;
4806;SDS011;2417;52.482;13.432;2023-03-31T11:39:21;7.03;;;2.57;;
4806;SDS011;2417;52.482;13.432;2023-03-31T11:41:53;9.20;;;2.40;;
4806;SDS011;2417;52.482;13.432;2023-03-31T11:44:22;10.83;;;2.97;;
4806;SDS011;2417;52.482;13.432;2023-03-31T11:46:52;9.03;;;2.50;;
4806;SDS011;2417;52.482;13.432;2023-03-31T11:49:22;6.57;;;2.20;;
4806;SDS011;2417;52.482;13.432;2023-03-31T11:51:52;10.70;;;3.03;;
4806;SDS011;2417;52.482;13.432;2023-03-31T11:54:24;7.50;;;2.40;;
4806;SDS011;2417;52.482;13.432;2023-03-31T11:56:54;12.27;;;3.17;;
4806;SDS011;2417;52.482;13.432;2023-03-31T11:59:24;15.20;;;3.67;;
4806;SDS011;2417;52.482;13.432;2023-03-31T12:01:56;10.83;;;3.20;;
4806;SDS011;2417;52.482;13.432;2023-03-31T12:04:29;13.17;;;4.27;;
4806;SDS011;2417;52.482;13.432;2023-03-31T12:07:01;11.20;;;4.00;;
4806;SDS011;2417;52.482;13.432;2023-03-31T12:09:32;8.33;;;4.17;;
4806;SDS011;2417;52.482;13.432;2023-03-31T12:12:02;9.50;;;4.17;;
4806;SDS011;2417;52.482;13.432;2023-03-31T12:14:32;11.10;;;3.57;;
4806;SDS011;2417;52.482;13.432;2023-03-31T12:17:03;13.63;;;4.40;;
4806;SDS011;2417;52.482;13.432;2023-03-31T12:19:33;10.83;;;3.93;;
4806;SDS011;2417;52.482;13.432;2023-03-31T12:22:04;8.37;;;4.07;;
4806;SDS011;2417;52.482;13.432;2023-03-31T12:24:36;11.03;;;4.33;;
4806;SDS011;2417;52.482;13.432;2023-03-31T12:27:05;8.10;;;3.43;;
4806;SDS011;2417;52.482;13.432;2023-03-31T12:29:36;9.80;;;3.60;;
4806;SDS011;2417;52.482;13.432;2023-03-31T12:32:06;11.20;;;2.63;;
4806;SDS011;2417;52.482;13.432;2023-03-31T12:34:37;8.03;;;2.60;;
4806;SDS011;2417;52.482;13.432;2023-03-31T12:37:20;7.80;;;2.90;;
4806;SDS011;2417;52.482;13.432;2023-03-31T12:39:54;7.60;;;3.00;;
4806;SDS011;2417;52.482;13.432;2023-03-31T12:45:13;4.80;;;1.40;;
4806;SDS011;2417;52.482;13.432;2023-03-31T12:50:31;7.10;;;1.63;;
4806;SDS011;2417;52.482;13.432;2023-03-31T12:53:04;5.30;;;2.13;;
4806;SDS011;2417;52.482;13.432;2023-03-31T12:55:37;8.60;;;2.40;;
4806;SDS011;2417;52.482;13.432;2023-03-31T13:01:02;9.57;;;3.30;;
4806;SDS011;2417;52.482;13.432;2023-03-31T13:03:41;9.47;;;3.90;;
4806;SDS011;2417;52.482;13.432;2023-03-31T13:06:10;13.80;;;4.70;;
4806;SDS011;2417;52.482;13.432;2023-03-31T13:08:48;14.50;;;5.57;;
4806;SDS011;2417;52.482;13.432;2023-03-31T13:11:18;16.10;;;6.97;;
4806;SDS011;2417;52.482;13.432;2023-03-31T13:13:51;15.47;;;7.30;;
4806;SDS011;2417;52.482;13.432;2023-03-31T13:16:26;18.77;;;8.53;;
4806;SDS011;2417;52.482;13.432;2023-03-31T13:18:54;15.40;;;7.37;;
4806;SDS011;2417;52.482;13.432;2023-03-31T13:21:23;15.77;;;7.40;;
4806;SDS011;2417;52.482;13.432;2023-03-31T13:23:51;14.77;;;6.77;;
4806;SDS011;2417;52.482;13.432;2023-03-31T13:26:37;21.63;;;10.60;;
4806;SDS011;2417;52.482;13.432;2023-03-31T13:29:10;22.03;;;9.20;;
4806;SDS011;2417;52.482;13.432;2023-03-31T13:34:21;107.23;;;11.37;;
4806;SDS011;2417;52.482;13.432;2023-03-31T13:36:55;21.20;;;10.07;;
4806;SDS011;2417;52.482;13.432;2023-03-31T13:42:16;17.97;;;8.70;;
4806;SDS011;2417;52.482;13.432;2023-03-31T13:45:08;28.80;;;8.10;;
4806;SDS011;2417;52.482;13.432;2023-03-31T13:47:47;17.97;;;6.97;;
4806;SDS011;2417;52.482;13.432;2023-03-31T13:50:24;17.27;;;7.30;;
4806;SDS011;2417;52.482;13.432;2023-03-31T13:52:57;31.47;;;8.20;;
4806;SDS011;2417;52.482;13.432;2023-03-31T13:55:47;22.20;;;7.70;;
4806;SDS011;2417;52.482;13.432;2023-03-31T13:58:27;31.23;;;7.23;;
4806;SDS011;2417;52.482;13.432;2023-03-31T14:01:10;15.30;;;7.20;;
4806;SDS011;2417;52.482;13.432;2023-03-31T14:03:46;18.63;;;6.47;;
4806;SDS011;2417;52.482;13.432;2023-03-31T14:06:22;12.33;;;6.90;;
4806;SDS011;2417;52.482;13.432;2023-03-31T14:08:52;17.30;;;8.57;;
4806;SDS011;2417;52.482;13.432;2023-03-31T14:11:22;13.33;;;6.30;;
4806;SDS011;2417;52.482;13.432;2023-03-31T14:14:02;12.47;;;6.57;;
4806;SDS011;2417;52.482;13.432;2023-03-31T14:16:32;11.80;;;5.50;;
4806;SDS011;2417;52.482;13.432;2023-03-31T14:19:06;7.70;;;4.23;;
4806;SDS011;2417;52.482;13.432;2023-03-31T14:21:38;11.40;;;4.77;;
4806;SDS011;2417;52.482;13.432;2023-03-31T14:24:12;8.60;;;4.03;;
4806;SDS011;2417;52.482;13.432;2023-03-31T14:26:49;6.73;;;4.00;;
4806;SDS011;2417;52.482;13.432;2023-03-31T14:29:22;9.07;;;4.30;;
4806;SDS011;2417;52.482;13.432;2023-03-31T14:31:55;11.07;;;4.30;;
4806;SDS011;2417;52.482;13.432;2023-03-31T14:34:31;6.67;;;3.70;;
4806;SDS011;2417;52.482;13.432;2023-03-31T14:37:02;7.53;;;3.33;;
4806;SDS011;2417;52.482;13.432;2023-03-31T14:39:32;10.00;;;4.57;;
4806;SDS011;2417;52.482;13.432;2023-03-31T14:42:02;10.80;;;4.43;;
4806;SDS011;2417;52.482;13.432;2023-03-31T14:44:33;8.13;;;4.10;;
4806;SDS011;2417;52.482;13.432;2023-03-31T14:47:01;7.83;;;3.80;;
4806;SDS011;2417;52.482;13.432;2023-03-31T14:49:33;9.80;;;3.37;;
4806;SDS011;2417;52.482;13.432;2023-03-31T14:52:03;6.90;;;2.90;;
4806;SDS011;2417;52.482;13.432;2023-03-31T14:54:33;6.00;;;3.03;;
4806;SDS011;2417;52.482;13.432;2023-03-31T14:57:03;8.43;;;2.60;;
4806;SDS011;2417;52.482;13.432;2023-03-31T14:59:33;9.80;;;3.80;;
4806;SDS011;2417;52.482;13.432;2023-03-31T15:02:03;11.50;;;3.50;;
4806;SDS011;2417;52.482;13.432;2023-03-31T15:04:34;9.83;;;3.10;;
4806;SDS011;2417;52.482;13.432;2023-03-31T15:07:10;4.83;;;2.23;;
4806;SDS011;2417;52.482;13.432;2023-03-31T15:09:38;15.07;;;3.80;;
4806;SDS011;2417;52.482;13.432;2023-03-31T15:12:07;8.07;;;3.90;;
4806;SDS011;2417;52.482;13.432;2023-03-31T15:14:39;13.63;;;4.00;;
4806;SDS011;2417;52.482;13.432;2023-03-31T15:17:15;7.63;;;3.83;;
4806;SDS011;2417;52.482;13.432;2023-03-31T15:19:43;9.10;;;4.20;;
4806;SDS011;2417;52.482;13.432;2023-03-31T15:22:11;16.70;;;5.57;;
4806;SDS011;2417;52.482;13.432;2023-03-31T15:24:41;6.50;;;3.80;;
4806;SDS011;2417;52.482;13.432;2023-03-31T15:27:11;10.23;;;3.80;;
4806;SDS011;2417;52.482;13.432;2023-03-31T15:29:47;7.87;;;3.50;;
4806;SDS011;2417;52.482;13.432;2023-03-31T15:32:18;8.60;;;3.63;;
4806;SDS011;2417;52.482;13.432;2023-03-31T15:34:50;10.80;;;4.70;;